Kayseri/Erkilet, Turkey
Current Conditions -  °F | °C
As of 7:20 AM on Friday 31 Oct 2014 (Local Time) from LTAU Reporting Station
Rain Showers Rain Showers  
Wind Chill: 46°   Ceiling: 3500
Heat Index: 48°   Visibility: 4mi
Dew Point: 46°   Wind: 6mph
Humidity: 93%   Direction: 250°WSW
Pressure: 29.94"   Gusts: NA
Location:  38.82°N, 35.45°E
Report Text: LTAU 310420Z 25005KT 7000 -SHRA SCT015 BKN035 09/08 Q1014 NOSIG
Loading
Personal Weather Stations






























Interactive Weather Map
Tropical Storm Tracking
New forecast layout! Learn more

10-Day Weather Forecast

Advertisements
Track Severe Weather on mobile